Terminal Aerodrome Forecast
Issued by NWS Amarillo, TX

Home | Current Version | Previous Version | Text Only | Print | Product List | Glossary On
Versions: 1 2 3 4 5 6 7 8 9 10 11 12 13 14 15 16 17 18 19 20 21 22 23 24
656
FTUS44 KAMA 250558
TAFAMA
TAF
KAMA 250558Z 2506/2606 14008KT P6SM OVC060
     FM251100 15009KT P6SM -SHRA OVC007
     FM251800 16010KT P6SM OVC020
     FM252100 15011KT P6SM OVC035=

USA.gov is the U.S. government's official web portal to all federal, state and local government web resources and services.